Time;durP1;ratioP1;P1;durP2;ratioP2;P2;SDS_P1;SDS_P2;PMS_P1;PMS_P2;Temp;Humidity;BMP_temperature;BMP_pressure;BME280_temperature;BME280_humidity;BME280_pressure;Samples;Min_cycle;Max_cycle;Signal;HPM_P1;HPM_P2
2022/09/08 00:01:18;;;;;;;2.10;1.80;;;23.80;77.30;;;;;;5051746;28;21008;-68
2022/09/08 00:03:47;;;;;;;4.17;2.57;;;23.80;77.20;;;;;;5037718;28;20492;-68
2022/09/08 00:06:17;;;;;;;3.30;2.50;;;23.80;77.80;;;;;;5047315;28;20468;-68
2022/09/08 00:08:46;;;;;;;2.70;1.80;;;23.80;77.70;;;;;;5044267;28;20502;-69
2022/09/08 00:11:18;;;;;;;3.43;3.13;;;23.70;77.00;;;;;;5052612;28;20582;-68
2022/09/08 00:13:47;;;;;;;3.77;3.43;;;23.60;77.40;;;;;;5046595;28;20479;-69
2022/09/08 00:16:18;;;;;;;4.00;2.87;;;23.50;78.20;;;;;;5050676;28;21112;-68
2022/09/08 00:18:50;;;;;;;3.40;3.03;;;23.50;78.10;;;;;;5050764;28;20476;-73
2022/09/08 00:21:19;;;;;;;3.20;2.80;;;23.50;78.20;;;;;;5049514;28;20465;-69
2022/09/08 00:23:47;;;;;;;2.63;2.43;;;23.50;77.90;;;;;;5051483;28;20550;-69
2022/09/08 00:26:15;;;;;;;2.70;2.50;;;23.40;77.80;;;;;;5052132;28;20479;-68
2022/09/08 00:28:43;;;;;;;2.43;2.23;;;23.30;77.80;;;;;;5050989;28;20494;-68
2022/09/08 00:31:11;;;;;;;3.30;2.83;;;23.30;78.00;;;;;;5038107;28;20850;-69
2022/09/08 00:33:41;;;;;;;3.10;2.80;;;23.20;78.20;;;;;;5043188;28;20470;-68
2022/09/08 00:36:14;;;;;;;1.87;1.77;;;23.20;78.20;;;;;;5035918;28;20452;-72
2022/09/08 00:38:42;;;;;;;2.30;2.10;;;23.10;77.80;;;;;;5051267;28;20661;-68
2022/09/08 00:41:12;;;;;;;3.57;2.53;;;23.10;78.00;;;;;;5050277;28;20550;-77
2022/09/08 00:43:49;;;;;;;7.30;2.27;;;23.10;77.70;;;;;;5050377;28;20965;-70
2022/09/08 00:46:24;;;;;;;2.10;2.00;;;23.10;78.00;;;;;;5052181;28;20862;-69
2022/09/08 00:49:02;;;;;;;2.40;2.20;;;23.10;78.20;;;;;;5049719;28;20454;-73
2022/09/08 00:51:31;;;;;;;2.40;2.20;;;23.10;78.40;;;;;;5042800;28;21152;-68
2022/09/08 00:54:00;;;;;;;2.10;2.00;;;23.10;78.50;;;;;;5043316;28;20459;-69
2022/09/08 00:56:30;;;;;;;3.90;2.10;;;23.10;78.40;;;;;;5043008;28;20944;-68
2022/09/08 00:59:01;;;;;;;3.23;1.90;;;23.10;78.20;;;;;;5045174;28;20477;-68
2022/09/08 01:01:31;;;;;;;3.87;2.20;;;23.10;78.10;;;;;;5051058;28;20470;-73
2022/09/08 01:04:01;;;;;;;2.27;2.07;;;23.20;78.10;;;;;;5047791;28;20472;-68
2022/09/08 01:12:44;;;;;;;4.87;2.80;;;23.40;77.40;;;;;;5050660;28;20496;-68
2022/09/08 01:15:16;;;;;;;2.27;2.07;;;23.30;77.50;;;;;;5046927;28;20464;-68
2022/09/08 01:17:44;;;;;;;2.37;2.17;;;23.30;77.40;;;;;;5045308;28;20561;-68
2022/09/08 01:20:15;;;;;;;2.00;1.90;;;23.20;77.60;;;;;;5051032;28;20992;-68
2022/09/08 01:23:23;;;;;;;2.90;1.97;;;23.10;77.90;;;;;;5046983;28;20465;-72
2022/09/08 01:26:18;;;;;;;2.10;2.00;;;23.10;77.70;;;;;;5044799;28;20455;-69
2022/09/08 01:28:52;;;;;;;2.40;2.20;;;23.00;77.90;;;;;;5035047;28;20540;-69
2022/09/08 01:31:22;;;;;;;2.20;2.00;;;23.00;78.30;;;;;;5048187;28;20451;-68
2022/09/08 01:33:51;;;;;;;5.90;2.83;;;23.00;77.70;;;;;;5035236;28;20483;-72
2022/09/08 01:36:19;;;;;;;2.50;1.90;;;22.90;77.70;;;;;;5053691;28;20949;-68
2022/09/08 01:38:48;;;;;;;1.70;1.60;;;22.90;78.20;;;;;;5055771;28;20479;-77
2022/09/08 01:41:16;;;;;;;2.50;2.30;;;22.80;78.20;;;;;;5054553;28;20459;-68
2022/09/08 01:43:44;;;;;;;3.13;2.60;;;22.80;78.40;;;;;;5054669;28;20458;-68
2022/09/08 01:46:13;;;;;;;2.50;2.17;;;22.80;78.80;;;;;;5050851;28;20554;-69
2022/09/08 01:48:42;;;;;;;6.43;1.77;;;22.80;78.60;;;;;;5055023;28;20874;-69
2022/09/08 01:51:10;;;;;;;2.77;1.90;;;22.90;78.20;;;;;;5054958;28;20455;-68
2022/09/08 01:53:38;;;;;;;2.10;1.70;;;22.90;77.90;;;;;;5054833;28;20466;-68
2022/09/08 01:56:09;;;;;;;1.53;1.43;;;22.90;77.70;;;;;;5054967;28;20630;-68
2022/09/08 01:58:38;;;;;;;1.97;1.80;;;22.90;77.90;;;;;;5051170;28;21023;-72
2022/09/08 02:01:09;;;;;;;2.10;1.90;;;22.90;77.90;;;;;;5053943;28;20849;-68
2022/09/08 02:03:38;;;;;;;1.80;1.70;;;22.80;78.20;;;;;;5055151;28;20492;-68
2022/09/08 02:06:10;;;;;;;2.00;1.67;;;22.80;78.50;;;;;;5047422;28;20598;-68
2022/09/08 02:08:38;;;;;;;2.63;1.67;;;22.80;78.40;;;;;;5054508;28;21012;-69
2022/09/08 02:11:06;;;;;;;2.23;1.83;;;22.80;78.40;;;;;;5054366;28;20552;-68
2022/09/08 02:13:36;;;;;;;2.57;1.57;;;22.70;78.70;;;;;;5048650;28;20468;-68
2022/09/08 02:16:08;;;;;;;2.83;1.93;;;22.70;78.80;;;;;;5045583;28;20486;-68
2022/09/08 02:18:38;;;;;;;2.50;1.60;;;22.70;78.90;;;;;;5041942;28;20923;-68
2022/09/08 02:21:10;;;;;;;1.50;1.40;;;22.70;78.90;;;;;;5054100;28;20500;-68
2022/09/08 02:23:41;;;;;;;2.83;2.53;;;22.70;79.10;;;;;;5050962;28;20897;-68
2022/09/08 02:26:14;;;;;;;2.80;2.57;;;22.80;79.00;;;;;;5054129;28;20827;-70
2022/09/08 02:28:43;;;;;;;2.47;2.27;;;22.80;78.70;;;;;;5053250;28;20867;-69
2022/09/08 02:31:12;;;;;;;1.70;1.60;;;22.70;78.70;;;;;;5050682;28;20458;-72
2022/09/08 02:33:42;;;;;;;2.23;2.13;;;22.70;78.60;;;;;;5035520;28;21001;-68
2022/09/08 02:36:10;;;;;;;1.60;1.50;;;22.80;78.60;;;;;;5042849;28;20463;-69
2022/09/08 02:38:38;;;;;;;2.73;1.57;;;22.80;78.60;;;;;;5040249;28;20551;-69
2022/09/08 02:41:07;;;;;;;1.93;1.83;;;22.80;78.50;;;;;;5052571;28;20467;-68
2022/09/08 02:43:36;;;;;;;1.90;1.80;;;22.80;78.60;;;;;;5053252;28;20469;-68
2022/09/08 02:46:09;;;;;;;1.90;1.73;;;22.80;78.60;;;;;;5051228;28;20463;-68
2022/09/08 02:48:37;;;;;;;4.57;2.37;;;22.80;78.60;;;;;;5051473;28;20500;-68
2022/09/08 02:51:11;;;;;;;4.77;4.47;;;22.80;78.60;;;;;;5052756;28;20818;-68
2022/09/08 02:53:42;;;;;;;4.67;3.00;;;22.80;78.60;;;;;;5051696;28;20546;-72
2022/09/08 02:56:11;;;;;;;5.67;5.20;;;22.80;78.50;;;;;;5053009;28;20546;-67
2022/09/08 02:58:40;;;;;;;7.20;6.60;;;22.80;78.70;;;;;;5054424;28;20445;-69
2022/09/08 03:01:09;;;;;;;18.63;17.10;;;22.70;78.70;;;;;;5052404;28;20900;-68
2022/09/08 03:03:37;;;;;;;15.53;14.03;;;22.70;78.70;;;;;;5047503;28;20468;-76
2022/09/08 03:06:10;;;;;;;8.63;7.63;;;22.60;78.90;;;;;;5036270;28;20497;-68
2022/09/08 03:08:38;;;;;;;4.33;3.30;;;22.50;79.50;;;;;;5052358;28;20459;-71
2022/09/08 03:11:09;;;;;;;2.97;2.73;;;22.40;79.60;;;;;;5051989;28;20464;-68
2022/09/08 03:13:39;;;;;;;2.57;2.37;;;22.20;80.30;;;;;;5052196;28;20473;-67
2022/09/08 03:16:07;;;;;;;3.83;2.93;;;22.20;80.30;;;;;;5050389;28;20477;-68
2022/09/08 03:18:36;;;;;;;5.83;4.30;;;22.20;80.40;;;;;;5049962;28;20468;-68
2022/09/08 03:21:10;;;;;;;9.47;8.67;;;22.30;80.50;;;;;;5051618;28;20470;-68
2022/09/08 03:23:39;;;;;;;8.07;7.27;;;22.30;80.40;;;;;;5051521;28;20468;-70
2022/09/08 03:26:12;;;;;;;10.97;9.80;;;22.30;80.40;;;;;;5000066;28;1103171;-74
2022/09/08 03:28:41;;;;;;;4.17;3.87;;;22.30;80.30;;;;;;5040770;28;20246;-69
2022/09/08 03:31:10;;;;;;;7.23;4.57;;;22.30;80.20;;;;;;5053289;28;20559;-68
2022/09/08 03:33:38;;;;;;;3.60;3.10;;;22.20;80.40;;;;;;5045839;28;20474;-69
2022/09/08 03:36:09;;;;;;;4.80;4.30;;;22.20;80.60;;;;;;5052242;28;20552;-73
2022/09/08 03:38:39;;;;;;;3.83;3.53;;;22.10;80.70;;;;;;5053858;28;20452;-68
2022/09/08 03:41:08;;;;;;;3.43;2.93;;;22.20;80.60;;;;;;5053108;28;20568;-68
2022/09/08 03:43:36;;;;;;;7.53;3.77;;;22.10;80.60;;;;;;5053704;28;20458;-68
2022/09/08 03:46:08;;;;;;;3.30;3.00;;;22.00;81.10;;;;;;5050354;28;21027;-68
2022/09/08 03:48:37;;;;;;;4.00;3.70;;;21.80;81.40;;;;;;5052263;28;20966;-68
2022/09/08 03:51:09;;;;;;;3.80;3.50;;;21.80;82.00;;;;;;5052652;28;20846;-68
2022/09/08 03:53:39;;;;;;;3.53;3.20;;;21.60;82.60;;;;;;5053217;28;21116;-70
2022/09/08 03:56:08;;;;;;;4.13;3.77;;;21.40;83.60;;;;;;5051060;28;20546;-69
2022/09/08 03:58:37;;;;;;;4.00;3.70;;;21.30;83.70;;;;;;5053761;28;20493;-68
2022/09/08 04:01:09;;;;;;;3.97;3.67;;;21.20;83.90;;;;;;5046132;28;20472;-73
2022/09/08 04:03:38;;;;;;;3.63;3.43;;;21.30;83.90;;;;;;5047229;28;20539;-68
2022/09/08 04:06:13;;;;;;;5.60;3.50;;;21.40;83.60;;;;;;5051394;28;20466;-68
2022/09/08 04:08:42;;;;;;;3.90;3.50;;;21.40;83.50;;;;;;5048816;28;20441;-68
2022/09/08 04:11:10;;;;;;;3.80;3.50;;;21.40;83.40;;;;;;5051935;28;20974;-68
2022/09/08 04:13:38;;;;;;;3.67;3.10;;;21.40;83.20;;;;;;5051618;28;20457;-78
2022/09/08 04:16:07;;;;;;;3.73;3.43;;;21.40;83.30;;;;;;5047838;28;20454;-68
2022/09/08 04:18:36;;;;;;;3.93;3.63;;;21.40;83.30;;;;;;5048279;28;20532;-68
2022/09/08 04:21:07;;;;;;;4.73;3.57;;;21.40;83.30;;;;;;5040907;28;20481;-72
2022/09/08 04:23:35;;;;;;;3.80;3.50;;;21.40;83.10;;;;;;5047701;28;20468;-69
2022/09/08 04:26:11;;;;;;;4.60;4.20;;;21.50;83.10;;;;;;5044958;28;20978;-73
2022/09/08 04:28:40;;;;;;;5.30;4.47;;;21.60;82.80;;;;;;5048964;28;20460;-68
2022/09/08 04:31:13;;;;;;;5.30;3.73;;;21.60;83.10;;;;;;5050045;28;20829;-72
2022/09/08 04:33:41;;;;;;;3.63;3.23;;;21.60;82.60;;;;;;5051715;28;20446;-72
2022/09/08 04:36:12;;;;;;;3.20;2.90;;;21.60;82.50;;;;;;5050263;28;20458;-68
2022/09/08 04:38:53;;;;;;;5.83;3.67;;;21.60;82.50;;;;;;5052566;28;20453;-73
2022/09/08 04:41:22;;;;;;;3.40;3.20;;;21.60;82.60;;;;;;5044021;28;20967;-68
2022/09/08 04:43:51;;;;;;;2.80;2.60;;;21.70;82.30;;;;;;5052037;28;20469;-68
2022/09/08 04:46:19;;;;;;;3.90;2.70;;;21.90;81.90;;;;;;5049180;28;20457;-68
2022/09/08 04:48:48;;;;;;;2.90;2.43;;;21.90;81.70;;;;;;5046255;28;20466;-67
2022/09/08 04:51:19;;;;;;;3.27;2.97;;;22.00;81.50;;;;;;5043521;28;20466;-68
2022/09/08 04:53:48;;;;;;;3.57;3.27;;;22.00;81.20;;;;;;5050839;28;20466;-68
2022/09/08 04:56:17;;;;;;;2.77;2.57;;;22.00;81.10;;;;;;5042820;28;20956;-68
2022/09/08 04:58:46;;;;;;;2.50;2.30;;;22.00;81.00;;;;;;5052007;28;20493;-68
2022/09/08 05:01:23;;;;;;;2.30;2.20;;;22.10;80.90;;;;;;5044435;28;20905;-68
2022/09/08 05:03:53;;;;;;;2.53;2.33;;;22.20;80.70;;;;;;5042803;28;20445;-72
2022/09/08 05:06:22;;;;;;;2.80;2.60;;;22.10;80.50;;;;;;5050139;28;20484;-68
2022/09/08 05:08:54;;;;;;;3.17;2.37;;;22.00;80.80;;;;;;5035574;28;20450;-68
2022/09/08 05:11:23;;;;;;;4.60;4.20;;;21.80;81.40;;;;;;5047655;28;20843;-68
2022/09/08 05:13:53;;;;;;;4.73;4.33;;;21.80;81.70;;;;;;5043713;28;20473;-70
2022/09/08 05:16:24;;;;;;;10.87;10.07;;;21.80;81.90;;;;;;5048474;28;20504;-67
2022/09/08 05:18:54;;;;;;;29.70;27.33;;;21.80;81.70;;;;;;5047502;28;20523;-71
2022/09/08 05:21:23;;;;;;;21.47;19.77;;;21.90;81.60;;;;;;5045893;28;20843;-71
2022/09/08 05:23:53;;;;;;;24.93;22.83;;;22.00;81.40;;;;;;5047430;28;20471;-67
2022/09/08 05:26:23;;;;;;;5.37;4.97;;;22.00;81.00;;;;;;5044201;28;20522;-67
2022/09/08 05:28:53;;;;;;;3.70;2.60;;;21.90;81.00;;;;;;5046625;28;20457;-70
2022/09/08 05:31:23;;;;;;;3.20;2.97;;;21.80;81.40;;;;;;5045023;28;20465;-67
2022/09/08 05:33:51;;;;;;;2.70;2.30;;;21.80;81.30;;;;;;5049912;28;20454;-70
2022/09/08 05:36:21;;;;;;;2.07;1.93;;;21.80;81.20;;;;;;5050216;28;20453;-68
2022/09/08 05:38:50;;;;;;;2.67;2.47;;;21.70;81.30;;;;;;5047510;28;20448;-67
2022/09/08 05:41:19;;;;;;;3.17;2.97;;;21.70;81.60;;;;;;5049570;28;20488;-71
2022/09/08 05:43:47;;;;;;;5.70;5.30;;;21.70;81.60;;;;;;5051034;28;20456;-67
2022/09/08 05:46:16;;;;;;;5.47;4.97;;;21.70;81.70;;;;;;5045201;28;20470;-67
2022/09/08 05:48:46;;;;;;;4.23;3.80;;;21.70;81.60;;;;;;5048776;28;20457;-67
2022/09/08 05:51:18;;;;;;;2.80;2.60;;;21.70;81.70;;;;;;5049530;28;20465;-67
2022/09/08 05:53:47;;;;;;;3.10;2.63;;;21.70;81.60;;;;;;5049212;28;20447;-67
2022/09/08 05:56:18;;;;;;;3.93;3.63;;;21.70;81.70;;;;;;5050848;28;20456;-67
2022/09/08 05:58:54;;;;;;;6.73;6.03;;;21.70;81.90;;;;;;5049376;28;20545;-67
2022/09/08 06:01:29;;;;;;;3.40;3.20;;;21.70;81.90;;;;;;5048086;28;20809;-67
2022/09/08 06:03:58;;;;;;;6.17;5.57;;;21.60;82.20;;;;;;5046730;28;20466;-69
2022/09/08 06:06:27;;;;;;;3.50;3.20;;;21.70;82.10;;;;;;5048330;28;20460;-71
2022/09/08 06:08:56;;;;;;;2.93;2.70;;;21.70;81.90;;;;;;5048259;28;20545;-67
2022/09/08 06:11:24;;;;;;;2.47;2.20;;;21.60;82.50;;;;;;5046056;28;20487;-67
2022/09/08 06:13:53;;;;;;;3.67;2.40;;;21.50;82.90;;;;;;5047098;28;20437;-67
2022/09/08 06:16:22;;;;;;;3.20;2.10;;;21.40;83.40;;;;;;5049697;28;20478;-69
2022/09/08 06:18:51;;;;;;;2.50;2.30;;;21.40;83.40;;;;;;5049700;28;20465;-71
2022/09/08 06:21:22;;;;;;;2.00;1.90;;;21.30;83.70;;;;;;5051532;28;20513;-67
2022/09/08 06:23:51;;;;;;;3.57;2.17;;;21.20;84.00;;;;;;5050475;28;20873;-67
2022/09/08 06:26:29;;;;;;;3.70;2.63;;;21.20;84.40;;;;;;5049418;28;20503;-68
2022/09/08 06:29:04;;;;;;;4.60;2.10;;;21.20;84.60;;;;;;5053414;28;20459;-69
2022/09/08 06:31:35;;;;;;;3.60;2.17;;;21.30;84.30;;;;;;5051724;28;20927;-67
2022/09/08 06:34:12;;;;;;;2.27;1.50;;;21.30;83.80;;;;;;5052567;28;20452;-71
2022/09/08 06:36:46;;;;;;;3.20;2.30;;;21.20;84.30;;;;;;5043384;28;20459;-67
2022/09/08 06:39:18;;;;;;;3.90;2.20;;;21.10;84.60;;;;;;5052469;28;20463;-68
2022/09/08 06:41:50;;;;;;;3.20;2.00;;;21.10;84.60;;;;;;5053399;28;20476;-67
2022/09/08 06:44:22;;;;;;;2.50;1.40;;;21.10;84.70;;;;;;5051929;28;20451;-68
2022/09/08 06:46:50;;;;;;;3.60;1.53;;;21.10;85.00;;;;;;5047067;28;20540;-70
2022/09/08 06:49:20;;;;;;;2.70;1.63;;;21.30;84.90;;;;;;5051286;28;20521;-66
2022/09/08 06:51:55;;;;;;;3.37;2.27;;;21.40;84.10;;;;;;5051261;28;21009;-68
2022/09/08 06:54:44;;;;;;;2.50;1.67;;;21.40;83.80;;;;;;5052554;28;20487;-77
2022/09/08 06:57:27;;;;;;;3.90;2.23;;;21.30;84.40;;;;;;5050078;28;20445;-70
2022/09/08 07:00:14;;;;;;;3.53;2.80;;;21.40;84.00;;;;;;5048776;28;20449;-66
2022/09/08 07:03:01;;;;;;;3.90;3.60;;;21.50;83.70;;;;;;5045879;28;20468;-67
2022/09/08 07:05:53;;;;;;;2.23;2.03;;;21.40;83.30;;;;;;5047487;28;20956;-66
2022/09/08 07:08:34;;;;;;;2.57;2.37;;;21.50;83.40;;;;;;5047680;28;20460;-66
2022/09/08 07:11:10;;;;;;;3.73;2.60;;;21.40;83.70;;;;;;5051943;28;20493;-66
2022/09/08 07:13:50;;;;;;;1.73;1.20;;;21.50;84.00;;;;;;5051433;28;20947;-66
2022/09/08 07:16:24;;;;;;;1.47;1.10;;;21.40;83.70;;;;;;5053130;28;20468;-66
2022/09/08 07:18:58;;;;;;;1.93;0.90;;;21.30;83.80;;;;;;5049294;28;20469;-70
2022/09/08 07:21:34;;;;;;;1.57;0.87;;;21.10;84.20;;;;;;5044820;28;20459;-67
2022/09/08 07:24:03;;;;;;;1.90;1.30;;;20.90;84.90;;;;;;5044295;28;20932;-71
2022/09/08 07:26:37;;;;;;;2.20;1.10;;;20.90;84.90;;;;;;5047358;28;20485;-67
2022/09/08 07:29:12;;;;;;;2.87;1.00;;;20.80;85.10;;;;;;5052163;28;20546;-66
2022/09/08 07:31:46;;;;;;;2.80;1.00;;;20.70;85.70;;;;;;5044435;28;20481;-66
2022/09/08 07:34:19;;;;;;;2.17;1.10;;;20.90;85.50;;;;;;5052610;28;20942;-68
2022/09/08 07:36:54;;;;;;;2.27;1.00;;;20.90;85.10;;;;;;5038524;28;20458;-71
2022/09/08 07:39:27;;;;;;;1.77;1.07;;;20.90;84.70;;;;;;5052735;28;20457;-66
2022/09/08 07:41:58;;;;;;;2.13;1.00;;;21.00;85.00;;;;;;5053020;28;20508;-67
2022/09/08 07:44:27;;;;;;;3.20;1.20;;;21.10;85.50;;;;;;5040945;28;20498;-72
2022/09/08 07:47:15;;;;;;;1.57;0.93;;;21.20;85.20;;;;;;5050663;28;20441;-67
2022/09/08 07:49:50;;;;;;;2.70;1.10;;;21.20;84.40;;;;;;5052738;28;20873;-67
2022/09/08 07:52:28;;;;;;;2.67;1.03;;;21.20;84.70;;;;;;5041119;28;20463;-67
2022/09/08 07:55:10;;;;;;;1.20;0.97;;;21.10;84.70;;;;;;5039832;28;20457;-71
2022/09/08 07:57:49;;;;;;;1.40;1.17;;;21.20;84.30;;;;;;5039175;28;20584;-67
2022/09/08 08:00:20;;;;;;;1.50;1.20;;;21.40;83.70;;;;;;5048338;28;20540;-69
2022/09/08 08:03:09;;;;;;;1.53;1.23;;;21.40;82.90;;;;;;5045033;28;20482;-67
2022/09/08 08:05:44;;;;;;;1.03;0.93;;;21.40;83.00;;;;;;5045101;28;20436;-72
2022/09/08 08:08:21;;;;;;;4.40;3.60;;;21.30;83.00;;;;;;5045625;28;20455;-70
2022/09/08 08:11:16;;;;;;;2.40;2.20;;;21.40;82.30;;;;;;5048178;28;20932;-66
2022/09/08 08:14:12;;;;;;;4.93;3.63;;;21.60;82.00;;;;;;5051237;28;20458;-71
2022/09/08 08:17:08;;;;;;;2.33;1.70;;;21.70;81.70;;;;;;5045495;28;20501;-67
2022/09/08 08:19:53;;;;;;;1.80;1.70;;;21.90;81.50;;;;;;5038290;28;20464;-66
2022/09/08 08:22:33;;;;;;;2.03;1.83;;;22.00;80.60;;;;;;5044429;28;20491;-66
2022/09/08 08:25:13;;;;;;;4.30;3.90;;;21.90;81.20;;;;;;5038548;28;20463;-67
2022/09/08 08:27:49;;;;;;;6.50;5.90;;;21.90;81.10;;;;;;5042640;28;20486;-67
2022/09/08 08:30:19;;;;;;;2.80;2.60;;;22.00;81.30;;;;;;5038096;28;20884;-67
2022/09/08 08:32:54;;;;;;;3.40;3.10;;;22.00;80.00;;;;;;5046031;28;20437;-66
2022/09/08 08:35:28;;;;;;;1.17;1.03;;;21.80;80.50;;;;;;5060421;28;20460;-66
2022/09/08 08:37:56;;;;;;;1.93;1.77;;;21.40;80.90;;;;;;5045152;28;20555;-68
2022/09/08 08:40:49;;;;;;;3.47;1.90;;;21.40;80.60;;;;;;5045963;28;20467;-67
2022/09/08 08:43:46;;;;;;;2.40;1.23;;;21.50;80.50;;;;;;5047897;28;20471;-67
2022/09/08 08:46:32;;;;;;;3.00;2.00;;;21.60;81.10;;;;;;5050345;28;20945;-70
2022/09/08 08:49:16;;;;;;;2.17;2.00;;;21.60;81.20;;;;;;5048885;28;20462;-67
2022/09/08 08:51:58;;;;;;;1.50;1.40;;;21.70;81.00;;;;;;5050499;28;20452;-69
2022/09/08 08:54:46;;;;;;;1.10;1.10;;;21.80;79.70;;;;;;5049277;28;20532;-67
2022/09/08 08:57:40;;;;;;;1.13;1.03;;;21.70;79.90;;;;;;5050120;28;20461;-67
2022/09/08 09:00:17;;;;;;;1.30;1.20;;;21.80;80.20;;;;;;5050187;28;20469;-66
2022/09/08 09:03:18;;;;;;;2.60;2.40;;;21.80;80.00;;;;;;5050018;28;20553;-67
2022/09/08 09:05:56;;;;;;;2.20;2.00;;;22.00;79.70;;;;;;5040473;28;20530;-67
2022/09/08 09:09:04;;;;;;;2.20;2.10;;;22.00;79.50;;;;;;5038690;28;20468;-66
2022/09/08 09:11:55;;;;;;;3.77;2.10;;;22.00;79.10;;;;;;5020799;28;20462;-65
2022/09/08 09:14:50;;;;;;;1.83;1.73;;;21.70;79.80;;;;;;5026483;28;20465;-65
2022/09/08 09:18:04;;;;;;;3.13;2.40;;;21.70;79.40;;;;;;5045896;28;20980;-69
2022/09/08 09:20:57;;;;;;;2.60;2.40;;;21.90;79.40;;;;;;5043390;28;20512;-66
2022/09/08 09:23:49;;;;;;;2.10;1.73;;;22.10;78.80;;;;;;5046385;28;20989;-66
2022/09/08 09:26:19;;;;;;;1.57;1.47;;;22.10;77.90;;;;;;5049550;28;20490;-67
2022/09/08 09:28:56;;;;;;;2.17;1.47;;;22.30;78.40;;;;;;5047074;28;20473;-74
2022/09/08 09:32:12;;;;;;;1.23;1.13;;;22.40;78.70;;;;;;5043473;28;20810;-68
2022/09/08 09:35:10;;;;;;;1.43;1.33;;;22.40;79.20;;;;;;4948550;28;20971;-67
2022/09/08 09:38:10;;;;;;;2.13;1.77;;;22.70;78.60;;;;;;5045370;28;20453;-67
2022/09/08 09:40:59;;;;;;;2.87;1.50;;;22.70;77.00;;;;;;5043231;28;20470;-70
2022/09/08 09:43:39;;;;;;;2.00;1.90;;;22.90;76.40;;;;;;5043321;28;20483;-75
2022/09/08 09:46:41;;;;;;;2.00;1.90;;;23.10;76.40;;;;;;5040634;28;20454;-67
2022/09/08 09:49:45;;;;;;;2.03;1.83;;;23.20;76.30;;;;;;5049090;28;20454;-68
2022/09/08 09:52:22;;;;;;;2.03;1.80;;;23.50;76.20;;;;;;5047782;28;20458;-74
2022/09/08 09:55:03;;;;;;;2.03;1.53;;;23.60;75.70;;;;;;5050161;28;20875;-68
2022/09/08 09:58:18;;;;;;;1.50;1.40;;;23.70;74.70;;;;;;5048558;28;20459;-68
2022/09/08 10:01:12;;;;;;;1.90;1.57;;;23.70;74.20;;;;;;5012114;28;20464;-69
2022/09/08 10:04:21;;;;;;;3.60;1.53;;;23.80;74.00;;;;;;5009371;28;20833;-66
2022/09/08 10:07:08;;;;;;;1.60;1.40;;;23.80;74.00;;;;;;5023733;28;20481;-77
2022/09/08 10:10:22;;;;;;;2.30;1.47;;;23.70;73.20;;;;;;5053292;28;20875;-66
2022/09/08 10:13:24;;;;;;;2.33;1.80;;;23.40;71.90;;;;;;5012034;28;20461;-67
2022/09/08 10:16:27;;;;;;;1.80;1.60;;;23.30;73.10;;;;;;5043142;28;20471;-68
2022/09/08 10:19:36;;;;;;;1.57;1.47;;;23.50;74.00;;;;;;5051504;28;20515;-72
2022/09/08 10:22:33;;;;;;;1.40;1.30;;;23.50;74.20;;;;;;5050669;28;20463;-70
2022/09/08 10:25:47;;;;;;;1.13;1.10;;;23.70;72.30;;;;;;5051433;28;20472;-71
2022/09/08 10:28:44;;;;;;;1.33;1.23;;;23.60;73.40;;;;;;5011479;28;20983;-74
2022/09/08 10:31:39;;;;;;;4.13;2.07;;;23.50;72.80;;;;;;5046919;28;20788;-63
2022/09/08 10:34:37;;;;;;;1.93;1.30;;;23.60;71.80;;;;;;5050395;28;20517;-66
2022/09/08 10:37:10;;;;;;;1.77;1.67;;;23.60;72.90;;;;;;5052359;28;20447;-64
2022/09/08 10:39:47;;;;;;;1.50;1.40;;;23.70;72.50;;;;;;5050402;28;20463;-65
2022/09/08 10:42:51;;;;;;;6.47;1.90;;;23.60;73.20;;;;;;5052460;28;20457;-64
2022/09/08 10:45:27;;;;;;;1.23;1.23;;;23.70;72.50;;;;;;5041526;28;20471;-64
2022/09/08 10:48:45;;;;;;;1.40;1.30;;;23.50;70.20;;;;;;5053162;28;20443;-64
2022/09/08 10:51:48;;;;;;;1.57;1.47;;;23.60;72.80;;;;;;5051970;28;20443;-64
2022/09/08 10:54:43;;;;;;;2.87;1.90;;;23.40;72.70;;;;;;5054576;28;20464;-64
2022/09/08 10:57:27;;;;;;;1.60;1.30;;;23.40;72.70;;;;;;5053834;28;20441;-63
2022/09/08 11:00:06;;;;;;;2.10;1.87;;;23.40;72.10;;;;;;5053261;28;20809;-64
2022/09/08 11:02:35;;;;;;;1.80;1.70;;;23.10;73.80;;;;;;5052448;28;20447;-66
2022/09/08 11:05:48;;;;;;;1.60;1.50;;;23.10;74.10;;;;;;5052309;28;20491;-64
2022/09/08 11:08:53;;;;;;;2.30;1.60;;;23.40;73.30;;;;;;5052412;28;20444;-64
2022/09/08 11:11:51;;;;;;;1.60;1.37;;;23.70;71.90;;;;;;5052277;28;20816;-66
2022/09/08 11:14:49;;;;;;;1.77;1.67;;;24.30;70.10;;;;;;5051067;28;21825;-64
2022/09/08 11:17:24;;;;;;;3.60;1.43;;;24.50;69.10;;;;;;5047740;28;20489;-64
2022/09/08 11:20:02;;;;;;;2.93;1.30;;;25.00;69.40;;;;;;5034190;28;20455;-64
2022/09/08 11:22:53;;;;;;;1.97;1.77;;;25.10;67.40;;;;;;5054020;28;20462;-64
2022/09/08 11:25:45;;;;;;;2.53;1.33;;;24.90;68.60;;;;;;5052201;28;20478;-64
2022/09/08 11:28:25;;;;;;;3.67;2.37;;;24.80;68.30;;;;;;5032202;28;20460;-64
2022/09/08 11:31:06;;;;;;;2.43;1.50;;;25.00;68.20;;;;;;5051510;28;20814;-64
2022/09/08 11:33:55;;;;;;;1.30;1.20;;;24.90;67.30;;;;;;5051546;28;20459;-64
2022/09/08 11:36:40;;;;;;;2.10;1.60;;;24.90;68.10;;;;;;5049134;28;20466;-63
2022/09/08 11:39:21;;;;;;;2.83;2.73;;;24.90;69.00;;;;;;5051090;28;20450;-65
2022/09/08 11:42:11;;;;;;;2.57;1.70;;;24.70;66.50;;;;;;5048676;28;20989;-64
2022/09/08 11:44:44;;;;;;;1.60;1.50;;;24.60;68.40;;;;;;5049280;28;20488;-66
2022/09/08 11:47:38;;;;;;;3.20;2.40;;;24.80;68.40;;;;;;5046435;28;21237;-64
2022/09/08 11:50:29;;;;;;;3.10;1.90;;;24.90;67.30;;;;;;5051636;28;20463;-68
2022/09/08 11:53:38;;;;;;;1.57;1.33;;;24.80;67.40;;;;;;5038660;28;20541;-72
2022/09/08 11:57:07;;;;;;;2.03;1.23;;;24.40;67.40;;;;;;5040881;28;20463;-78
2022/09/08 11:59:52;;;;;;;1.00;1.00;;;24.30;67.80;;;;;;5030039;28;20459;-67
2022/09/08 12:02:56;;;;;;;2.00;1.50;;;24.20;68.60;;;;;;5048205;28;20448;-67
2022/09/08 12:05:33;;;;;;;1.47;1.37;;;24.10;69.30;;;;;;5048273;28;20481;-69
2022/09/08 12:08:52;;;;;;;2.70;1.47;;;24.50;69.50;;;;;;5041494;28;21167;-70
2022/09/08 12:12:13;;;;;;;1.30;1.03;;;25.10;68.00;;;;;;5047899;28;20453;-68
2022/09/08 12:14:49;;;;;;;1.70;1.23;;;25.60;65.30;;;;;;5015551;28;20446;-70
2022/09/08 12:17:31;;;;;;;1.17;1.07;;;26.20;64.00;;;;;;5028590;28;20491;-71
2022/09/08 12:20:22;;;;;;;1.60;1.50;;;26.60;64.10;;;;;;5040342;28;20466;-67
2022/09/08 12:23:24;;;;;;;1.03;0.93;;;27.00;62.40;;;;;;5046893;28;20806;-68
2022/09/08 12:26:24;;;;;;;3.60;1.43;;;27.40;62.40;;;;;;5049126;28;20482;-72
2022/09/08 12:29:29;;;;;;;1.73;1.63;;;27.80;61.20;;;;;;5044633;28;21153;-67
2022/09/08 12:32:14;;;;;;;1.70;1.33;;;27.70;60.60;;;;;;5040556;28;20472;-71
2022/09/08 12:35:21;;;;;;;1.73;1.63;;;27.30;61.90;;;;;;5051576;28;20809;-75
2022/09/08 12:38:12;;;;;;;0.83;0.83;;;27.10;61.30;;;;;;5050363;28;20461;-68
2022/09/08 12:41:31;;;;;;;1.00;1.00;;;27.00;62.00;;;;;;5050935;28;20497;-66
2022/09/08 12:44:11;;;;;;;1.30;1.20;;;26.80;62.40;;;;;;4984753;28;20465;-67
2022/09/08 12:46:58;;;;;;;1.37;1.27;;;26.60;63.80;;;;;;4983795;28;20967;-68
2022/09/08 12:50:05;;;;;;;2.10;1.57;;;26.40;64.60;;;;;;5032437;28;20474;-69
2022/09/08 12:52:53;;;;;;;1.30;1.20;;;26.50;63.80;;;;;;5049387;28;20455;-72
2022/09/08 12:55:26;;;;;;;2.63;1.40;;;26.50;64.30;;;;;;5042233;28;20462;-68
2022/09/08 12:57:55;;;;;;;1.40;1.30;;;26.50;64.40;;;;;;5047501;28;20824;-69
2022/09/08 13:00:29;;;;;;;1.77;1.20;;;26.60;63.70;;;;;;5047343;28;20474;-68
2022/09/08 13:03:24;;;;;;;1.80;0.93;;;26.60;61.30;;;;;;5046485;28;20459;-68
2022/09/08 13:06:30;;;;;;;1.10;1.00;;;26.60;62.40;;;;;;5045746;28;21010;-67
2022/09/08 13:09:00;;;;;;;1.50;1.40;;;26.50;62.50;;;;;;5044494;28;21063;-71
2022/09/08 13:12:00;;;;;;;0.70;0.70;;;26.70;63.20;;;;;;5049049;28;20939;-67
2022/09/08 13:14:48;;;;;;;0.80;0.80;;;27.00;57.60;;;;;;5043757;28;20459;-68
2022/09/08 13:17:23;;;;;;;1.13;1.03;;;27.10;59.40;;;;;;5050134;28;20509;-69
2022/09/08 13:20:14;;;;;;;1.10;0.70;;;27.00;59.60;;;;;;5047411;28;20472;-75
2022/09/08 13:22:46;;;;;;;0.80;0.80;;;26.90;56.70;;;;;;5048008;28;20452;-68
2022/09/08 13:25:21;;;;;;;1.23;1.00;;;26.90;58.90;;;;;;5047260;28;20472;-69
2022/09/08 13:28:15;;;;;;;0.50;0.50;;;27.00;60.40;;;;;;5042274;28;21072;-68
2022/09/08 13:30:52;;;;;;;3.73;0.80;;;27.20;56.20;;;;;;5051248;28;20468;-68
2022/09/08 13:33:47;;;;;;;0.93;0.90;;;27.10;56.50;;;;;;5046584;28;20517;-71
2022/09/08 13:36:31;;;;;;;1.00;0.93;;;27.00;56.30;;;;;;5051078;28;20451;-67
2022/09/08 13:39:11;;;;;;;0.60;0.60;;;26.90;57.40;;;;;;5045788;28;20452;-67
2022/09/08 13:42:03;;;;;;;2.90;0.80;;;26.90;57.20;;;;;;5048549;28;20451;-69
2022/09/08 13:45:09;;;;;;;0.90;0.80;;;27.00;56.80;;;;;;5052162;28;20446;-70
2022/09/08 13:47:57;;;;;;;1.90;0.90;;;27.00;55.70;;;;;;5027121;28;20472;-71
2022/09/08 13:50:58;;;;;;;0.60;0.60;;;27.00;55.90;;;;;;5050356;28;20502;-68
2022/09/08 13:54:02;;;;;;;0.87;0.73;;;27.00;56.60;;;;;;5050530;28;20586;-69